sensor_id;sensor_type;location;lat;lon;timestamp;P1;durP1;ratioP1;P2;durP2;ratioP2
55067;SDS011;40965;52.368;9.712;2023-08-21T00:00:38;5.38;;;2.05;;
55067;SDS011;40965;52.368;9.712;2023-08-21T00:03:04;2.90;;;2.60;;
55067;SDS011;40965;52.368;9.712;2023-08-21T00:05:32;3.75;;;2.88;;
55067;SDS011;40965;52.368;9.712;2023-08-21T00:07:58;3.40;;;2.70;;
55067;SDS011;40965;52.368;9.712;2023-08-21T00:10:25;6.13;;;2.92;;
55067;SDS011;40965;52.368;9.712;2023-08-21T00:12:52;5.55;;;2.88;;
55067;SDS011;40965;52.368;9.712;2023-08-21T00:15:19;4.22;;;3.03;;
55067;SDS011;40965;52.368;9.712;2023-08-21T00:17:45;3.13;;;2.88;;
55067;SDS011;40965;52.368;9.712;2023-08-21T00:20:12;3.17;;;2.88;;
55067;SDS011;40965;52.368;9.712;2023-08-21T00:22:39;3.22;;;2.92;;
55067;SDS011;40965;52.368;9.712;2023-08-21T00:25:09;4.82;;;3.20;;
55067;SDS011;40965;52.368;9.712;2023-08-21T00:27:35;5.53;;;4.03;;
55067;SDS011;40965;52.368;9.712;2023-08-21T00:30:02;2.88;;;2.47;;
55067;SDS011;40965;52.368;9.712;2023-08-21T00:32:31;2.78;;;2.58;;
55067;SDS011;40965;52.368;9.712;2023-08-21T00:34:58;4.65;;;2.35;;
55067;SDS011;40965;52.368;9.712;2023-08-21T00:37:24;3.42;;;2.33;;
55067;SDS011;40965;52.368;9.712;2023-08-21T00:39:51;4.05;;;2.22;;
55067;SDS011;40965;52.368;9.712;2023-08-21T00:42:17;1.90;;;1.65;;
55067;SDS011;40965;52.368;9.712;2023-08-21T00:44:44;3.15;;;1.92;;
55067;SDS011;40965;52.368;9.712;2023-08-21T00:47:10;2.42;;;2.22;;
55067;SDS011;40965;52.368;9.712;2023-08-21T00:49:37;4.28;;;1.90;;
55067;SDS011;40965;52.368;9.712;2023-08-21T00:52:06;3.80;;;2.30;;
55067;SDS011;40965;52.368;9.712;2023-08-21T00:54:34;2.75;;;2.28;;
55067;SDS011;40965;52.368;9.712;2023-08-21T00:57:01;2.45;;;2.10;;
55067;SDS011;40965;52.368;9.712;2023-08-21T00:59:28;2.92;;;2.10;;
55067;SDS011;40965;52.368;9.712;2023-08-21T01:01:56;2.70;;;2.00;;
55067;SDS011;40965;52.368;9.712;2023-08-21T01:04:23;3.88;;;2.63;;
55067;SDS011;40965;52.368;9.712;2023-08-21T01:06:49;7.18;;;2.22;;
55067;SDS011;40965;52.368;9.712;2023-08-21T01:09:18;2.65;;;1.75;;
55067;SDS011;40965;52.368;9.712;2023-08-21T01:11:50;6.88;;;2.63;;
55067;SDS011;40965;52.368;9.712;2023-08-21T01:14:33;3.85;;;3.05;;
55067;SDS011;40965;52.368;9.712;2023-08-21T01:17:23;3.78;;;2.42;;
55067;SDS011;40965;52.368;9.712;2023-08-21T01:19:50;2.40;;;2.10;;
55067;SDS011;40965;52.368;9.712;2023-08-21T01:22:18;2.30;;;2.10;;
55067;SDS011;40965;52.368;9.712;2023-08-21T01:24:45;3.08;;;2.63;;
55067;SDS011;40965;52.368;9.712;2023-08-21T01:27:12;3.30;;;2.17;;
55067;SDS011;40965;52.368;9.712;2023-08-21T01:29:40;2.08;;;1.73;;
55067;SDS011;40965;52.368;9.712;2023-08-21T01:32:20;3.55;;;1.60;;
55067;SDS011;40965;52.368;9.712;2023-08-21T01:34:54;9.15;;;2.15;;
55067;SDS011;40965;52.368;9.712;2023-08-21T01:37:23;3.58;;;1.70;;
55067;SDS011;40965;52.368;9.712;2023-08-21T01:39:51;1.63;;;1.52;;
55067;SDS011;40965;52.368;9.712;2023-08-21T01:42:17;2.10;;;1.90;;
55067;SDS011;40965;52.368;9.712;2023-08-21T01:44:44;3.05;;;1.85;;
55067;SDS011;40965;52.368;9.712;2023-08-21T01:47:11;4.45;;;1.67;;
55067;SDS011;40965;52.368;9.712;2023-08-21T01:49:38;3.38;;;1.80;;
55067;SDS011;40965;52.368;9.712;2023-08-21T01:52:05;4.90;;;1.73;;
55067;SDS011;40965;52.368;9.712;2023-08-21T01:54:31;1.95;;;1.85;;
55067;SDS011;40965;52.368;9.712;2023-08-21T01:56:58;1.50;;;1.40;;
55067;SDS011;40965;52.368;9.712;2023-08-21T01:59:24;2.28;;;1.70;;
55067;SDS011;40965;52.368;9.712;2023-08-21T02:01:51;2.65;;;2.08;;
55067;SDS011;40965;52.368;9.712;2023-08-21T02:04:18;1.67;;;1.58;;
55067;SDS011;40965;52.368;9.712;2023-08-21T02:06:45;2.13;;;1.85;;
55067;SDS011;40965;52.368;9.712;2023-08-21T02:09:12;1.75;;;1.60;;
55067;SDS011;40965;52.368;9.712;2023-08-21T02:11:38;2.25;;;1.77;;
55067;SDS011;40965;52.368;9.712;2023-08-21T02:14:05;2.80;;;2.20;;
55067;SDS011;40965;52.368;9.712;2023-08-21T02:16:32;2.17;;;1.63;;
55067;SDS011;40965;52.368;9.712;2023-08-21T02:18:59;2.95;;;2.05;;
55067;SDS011;40965;52.368;9.712;2023-08-21T02:21:25;4.10;;;2.10;;
55067;SDS011;40965;52.368;9.712;2023-08-21T02:23:52;2.53;;;1.73;;
55067;SDS011;40965;52.368;9.712;2023-08-21T02:26:19;5.32;;;1.70;;
55067;SDS011;40965;52.368;9.712;2023-08-21T02:28:45;3.08;;;2.22;;
55067;SDS011;40965;52.368;9.712;2023-08-21T02:31:12;1.58;;;1.48;;
55067;SDS011;40965;52.368;9.712;2023-08-21T02:33:39;2.25;;;2.05;;
55067;SDS011;40965;52.368;9.712;2023-08-21T02:36:05;2.25;;;2.15;;
55067;SDS011;40965;52.368;9.712;2023-08-21T02:38:33;2.88;;;2.00;;
55067;SDS011;40965;52.368;9.712;2023-08-21T02:41:00;2.90;;;2.30;;
55067;SDS011;40965;52.368;9.712;2023-08-21T02:43:26;2.92;;;2.60;;
55067;SDS011;40965;52.368;9.712;2023-08-21T02:45:53;4.20;;;2.42;;
55067;SDS011;40965;52.368;9.712;2023-08-21T02:48:21;4.03;;;2.25;;
55067;SDS011;40965;52.368;9.712;2023-08-21T02:50:48;5.07;;;2.75;;
55067;SDS011;40965;52.368;9.712;2023-08-21T02:53:15;3.38;;;2.72;;
55067;SDS011;40965;52.368;9.712;2023-08-21T02:55:42;4.47;;;2.15;;
55067;SDS011;40965;52.368;9.712;2023-08-21T02:58:08;2.40;;;1.80;;
55067;SDS011;40965;52.368;9.712;2023-08-21T03:00:35;3.22;;;2.17;;
55067;SDS011;40965;52.368;9.712;2023-08-21T03:03:02;1.65;;;1.55;;
55067;SDS011;40965;52.368;9.712;2023-08-21T03:05:29;2.05;;;1.95;;
55067;SDS011;40965;52.368;9.712;2023-08-21T03:07:56;5.55;;;2.35;;
55067;SDS011;40965;52.368;9.712;2023-08-21T03:10:24;4.15;;;1.92;;
55067;SDS011;40965;52.368;9.712;2023-08-21T03:12:52;1.40;;;1.30;;
55067;SDS011;40965;52.368;9.712;2023-08-21T03:15:19;4.47;;;1.63;;
55067;SDS011;40965;52.368;9.712;2023-08-21T03:17:45;1.88;;;1.73;;
55067;SDS011;40965;52.368;9.712;2023-08-21T03:20:12;2.33;;;1.65;;
55067;SDS011;40965;52.368;9.712;2023-08-21T03:22:40;2.95;;;1.80;;
55067;SDS011;40965;52.368;9.712;2023-08-21T03:25:07;5.35;;;2.60;;
55067;SDS011;40965;52.368;9.712;2023-08-21T03:27:34;1.95;;;1.52;;
55067;SDS011;40965;52.368;9.712;2023-08-21T03:30:04;4.70;;;2.05;;
55067;SDS011;40965;52.368;9.712;2023-08-21T03:32:33;1.70;;;1.50;;
55067;SDS011;40965;52.368;9.712;2023-08-21T03:35:00;2.20;;;1.90;;
55067;SDS011;40965;52.368;9.712;2023-08-21T03:37:27;6.35;;;1.48;;
55067;SDS011;40965;52.368;9.712;2023-08-21T03:39:54;8.43;;;1.98;;
55067;SDS011;40965;52.368;9.712;2023-08-21T03:42:22;4.00;;;2.33;;
55067;SDS011;40965;52.368;9.712;2023-08-21T03:44:49;4.65;;;2.10;;
55067;SDS011;40965;52.368;9.712;2023-08-21T03:47:16;3.70;;;2.42;;
55067;SDS011;40965;52.368;9.712;2023-08-21T03:49:43;5.03;;;2.10;;
55067;SDS011;40965;52.368;9.712;2023-08-21T03:52:09;2.47;;;1.80;;
55067;SDS011;40965;52.368;9.712;2023-08-21T03:54:36;3.90;;;2.00;;
55067;SDS011;40965;52.368;9.712;2023-08-21T03:57:03;4.85;;;2.42;;
55067;SDS011;40965;52.368;9.712;2023-08-21T03:59:29;2.15;;;1.95;;
55067;SDS011;40965;52.368;9.712;2023-08-21T04:01:56;2.83;;;1.85;;
55067;SDS011;40965;52.368;9.712;2023-08-21T04:04:23;1.35;;;1.35;;
55067;SDS011;40965;52.368;9.712;2023-08-21T04:06:50;3.22;;;1.90;;
55067;SDS011;40965;52.368;9.712;2023-08-21T04:09:16;2.88;;;1.73;;
55067;SDS011;40965;52.368;9.712;2023-08-21T04:11:43;4.80;;;1.98;;
55067;SDS011;40965;52.368;9.712;2023-08-21T04:14:10;3.45;;;2.60;;
55067;SDS011;40965;52.368;9.712;2023-08-21T04:16:39;2.92;;;1.80;;
55067;SDS011;40965;52.368;9.712;2023-08-21T04:19:06;4.30;;;1.88;;
55067;SDS011;40965;52.368;9.712;2023-08-21T04:21:34;3.45;;;1.73;;
55067;SDS011;40965;52.368;9.712;2023-08-21T04:24:01;4.45;;;2.20;;
55067;SDS011;40965;52.368;9.712;2023-08-21T04:26:27;1.88;;;1.70;;
55067;SDS011;40965;52.368;9.712;2023-08-21T04:28:54;4.13;;;1.95;;
55067;SDS011;40965;52.368;9.712;2023-08-21T04:31:21;5.43;;;2.33;;
55067;SDS011;40965;52.368;9.712;2023-08-21T04:33:47;2.42;;;2.03;;
55067;SDS011;40965;52.368;9.712;2023-08-21T04:36:15;3.78;;;1.83;;
55067;SDS011;40965;52.368;9.712;2023-08-21T04:38:42;3.67;;;1.75;;
55067;SDS011;40965;52.368;9.712;2023-08-21T04:41:09;2.65;;;1.75;;
55067;SDS011;40965;52.368;9.712;2023-08-21T04:43:40;4.00;;;2.13;;
55067;SDS011;40965;52.368;9.712;2023-08-21T04:46:07;3.63;;;1.98;;
55067;SDS011;40965;52.368;9.712;2023-08-21T04:48:34;3.22;;;1.63;;
55067;SDS011;40965;52.368;9.712;2023-08-21T04:51:01;3.13;;;1.55;;
55067;SDS011;40965;52.368;9.712;2023-08-21T04:53:28;6.32;;;2.47;;
55067;SDS011;40965;52.368;9.712;2023-08-21T04:55:55;7.40;;;2.97;;
55067;SDS011;40965;52.368;9.712;2023-08-21T04:58:24;5.63;;;2.00;;
55067;SDS011;40965;52.368;9.712;2023-08-21T05:00:51;3.47;;;1.50;;
55067;SDS011;40965;52.368;9.712;2023-08-21T05:03:17;3.63;;;1.65;;
55067;SDS011;40965;52.368;9.712;2023-08-21T05:05:54;7.05;;;2.20;;
55067;SDS011;40965;52.368;9.712;2023-08-21T05:08:24;4.80;;;2.20;;
55067;SDS011;40965;52.368;9.712;2023-08-21T05:10:55;3.95;;;2.20;;
55067;SDS011;40965;52.368;9.712;2023-08-21T05:13:25;2.78;;;1.58;;
55067;SDS011;40965;52.368;9.712;2023-08-21T05:15:52;2.67;;;1.73;;
55067;SDS011;40965;52.368;9.712;2023-08-21T05:18:20;4.72;;;2.15;;
55067;SDS011;40965;52.368;9.712;2023-08-21T05:20:49;5.53;;;2.05;;
55067;SDS011;40965;52.368;9.712;2023-08-21T05:23:16;4.68;;;2.05;;
55067;SDS011;40965;52.368;9.712;2023-08-21T05:25:46;5.43;;;2.38;;
55067;SDS011;40965;52.368;9.712;2023-08-21T05:28:15;1.70;;;1.45;;
55067;SDS011;40965;52.368;9.712;2023-08-21T05:30:41;3.67;;;1.73;;
55067;SDS011;40965;52.368;9.712;2023-08-21T05:33:10;4.22;;;2.15;;
55067;SDS011;40965;52.368;9.712;2023-08-21T05:35:36;3.28;;;1.77;;
55067;SDS011;40965;52.368;9.712;2023-08-21T05:38:03;3.35;;;2.05;;
55067;SDS011;40965;52.368;9.712;2023-08-21T05:40:31;3.35;;;2.03;;
55067;SDS011;40965;52.368;9.712;2023-08-21T05:42:57;6.63;;;3.00;;
55067;SDS011;40965;52.368;9.712;2023-08-21T05:45:24;1.83;;;1.58;;
55067;SDS011;40965;52.368;9.712;2023-08-21T05:47:50;5.82;;;1.95;;
55067;SDS011;40965;52.368;9.712;2023-08-21T05:50:17;3.42;;;2.45;;
55067;SDS011;40965;52.368;9.712;2023-08-21T05:52:44;11.50;;;3.30;;
55067;SDS011;40965;52.368;9.712;2023-08-21T05:55:13;5.20;;;2.35;;
55067;SDS011;40965;52.368;9.712;2023-08-21T05:57:40;6.63;;;2.83;;
55067;SDS011;40965;52.368;9.712;2023-08-21T06:00:07;4.40;;;2.55;;
55067;SDS011;40965;52.368;9.712;2023-08-21T06:02:34;5.10;;;2.58;;
55067;SDS011;40965;52.368;9.712;2023-08-21T06:05:01;4.32;;;2.17;;
55067;SDS011;40965;52.368;9.712;2023-08-21T06:07:28;4.47;;;2.13;;
55067;SDS011;40965;52.368;9.712;2023-08-21T06:09:54;5.55;;;2.85;;
55067;SDS011;40965;52.368;9.712;2023-08-21T06:12:21;4.50;;;2.13;;
55067;SDS011;40965;52.368;9.712;2023-08-21T06:14:48;3.08;;;1.58;;
55067;SDS011;40965;52.368;9.712;2023-08-21T06:17:14;5.95;;;1.88;;
55067;SDS011;40965;52.368;9.712;2023-08-21T06:19:41;5.53;;;2.28;;
55067;SDS011;40965;52.368;9.712;2023-08-21T06:22:07;3.40;;;1.67;;
55067;SDS011;40965;52.368;9.712;2023-08-21T06:24:34;6.38;;;2.13;;
55067;SDS011;40965;52.368;9.712;2023-08-21T06:27:01;1.88;;;1.50;;
55067;SDS011;40965;52.368;9.712;2023-08-21T06:29:28;4.32;;;1.92;;
55067;SDS011;40965;52.368;9.712;2023-08-21T06:31:54;3.30;;;1.95;;
55067;SDS011;40965;52.368;9.712;2023-08-21T06:34:21;4.90;;;2.10;;
55067;SDS011;40965;52.368;9.712;2023-08-21T06:36:48;5.38;;;2.72;;
55067;SDS011;40965;52.368;9.712;2023-08-21T06:39:14;5.35;;;1.98;;
55067;SDS011;40965;52.368;9.712;2023-08-21T06:41:41;2.08;;;1.90;;
55067;SDS011;40965;52.368;9.712;2023-08-21T06:44:07;6.32;;;2.45;;
55067;SDS011;40965;52.368;9.712;2023-08-21T06:46:34;8.60;;;2.17;;
55067;SDS011;40965;52.368;9.712;2023-08-21T06:49:01;2.13;;;1.92;;
55067;SDS011;40965;52.368;9.712;2023-08-21T06:51:28;2.95;;;2.28;;
55067;SDS011;40965;52.368;9.712;2023-08-21T06:53:55;6.85;;;2.00;;
55067;SDS011;40965;52.368;9.712;2023-08-21T06:56:22;3.83;;;1.92;;
55067;SDS011;40965;52.368;9.712;2023-08-21T06:58:48;5.97;;;1.88;;
55067;SDS011;40965;52.368;9.712;2023-08-21T07:01:15;6.70;;;1.80;;
55067;SDS011;40965;52.368;9.712;2023-08-21T07:03:41;2.75;;;1.77;;
55067;SDS011;40965;52.368;9.712;2023-08-21T07:06:08;4.13;;;1.58;;
55067;SDS011;40965;52.368;9.712;2023-08-21T07:08:35;2.55;;;1.63;;
55067;SDS011;40965;52.368;9.712;2023-08-21T07:11:02;2.55;;;1.95;;
55067;SDS011;40965;52.368;9.712;2023-08-21T07:13:30;2.38;;;1.90;;
55067;SDS011;40965;52.368;9.712;2023-08-21T07:15:57;3.78;;;2.20;;
55067;SDS011;40965;52.368;9.712;2023-08-21T07:18:27;1.63;;;1.23;;
55067;SDS011;40965;52.368;9.712;2023-08-21T07:20:53;3.33;;;1.50;;
55067;SDS011;40965;52.368;9.712;2023-08-21T07:23:20;3.80;;;1.90;;
55067;SDS011;40965;52.368;9.712;2023-08-21T07:25:47;3.72;;;1.52;;
55067;SDS011;40965;52.368;9.712;2023-08-21T07:28:13;5.32;;;2.42;;
55067;SDS011;40965;52.368;9.712;2023-08-21T07:30:42;1.95;;;1.30;;
55067;SDS011;40965;52.368;9.712;2023-08-21T07:33:08;2.90;;;1.40;;
55067;SDS011;40965;52.368;9.712;2023-08-21T07:35:35;2.13;;;1.23;;
55067;SDS011;40965;52.368;9.712;2023-08-21T07:38:02;3.65;;;1.42;;
55067;SDS011;40965;52.368;9.712;2023-08-21T07:40:29;3.50;;;1.55;;
55067;SDS011;40965;52.368;9.712;2023-08-21T07:42:56;3.28;;;1.83;;
55067;SDS011;40965;52.368;9.712;2023-08-21T07:45:22;2.17;;;1.50;;
55067;SDS011;40965;52.368;9.712;2023-08-21T07:47:49;4.32;;;1.55;;
55067;SDS011;40965;52.368;9.712;2023-08-21T07:50:16;2.78;;;1.63;;
55067;SDS011;40965;52.368;9.712;2023-08-21T07:52:42;5.57;;;1.83;;
55067;SDS011;40965;52.368;9.712;2023-08-21T07:55:09;2.10;;;1.05;;
55067;SDS011;40965;52.368;9.712;2023-08-21T07:57:36;1.90;;;1.50;;
55067;SDS011;40965;52.368;9.712;2023-08-21T08:00:03;2.97;;;1.13;;
55067;SDS011;40965;52.368;9.712;2023-08-21T08:02:33;4.60;;;1.27;;
55067;SDS011;40965;52.368;9.712;2023-08-21T08:05:00;7.13;;;2.25;;
55067;SDS011;40965;52.368;9.712;2023-08-21T08:07:28;3.75;;;1.05;;
55067;SDS011;40965;52.368;9.712;2023-08-21T08:09:56;6.57;;;1.77;;
55067;SDS011;40965;52.368;9.712;2023-08-21T08:12:22;5.63;;;1.92;;
55067;SDS011;40965;52.368;9.712;2023-08-21T08:14:50;4.65;;;1.80;;
55067;SDS011;40965;52.368;9.712;2023-08-21T08:17:16;3.10;;;1.33;;
55067;SDS011;40965;52.368;9.712;2023-08-21T08:19:43;4.03;;;1.63;;
55067;SDS011;40965;52.368;9.712;2023-08-21T08:22:10;4.15;;;2.42;;
55067;SDS011;40965;52.368;9.712;2023-08-21T08:24:37;2.58;;;1.65;;
55067;SDS011;40965;52.368;9.712;2023-08-21T08:27:03;4.32;;;1.38;;
55067;SDS011;40965;52.368;9.712;2023-08-21T08:29:30;4.35;;;1.27;;
55067;SDS011;40965;52.368;9.712;2023-08-21T08:31:56;2.20;;;1.30;;
55067;SDS011;40965;52.368;9.712;2023-08-21T08:34:23;5.05;;;1.67;;
55067;SDS011;40965;52.368;9.712;2023-08-21T08:36:50;5.13;;;1.67;;
55067;SDS011;40965;52.368;9.712;2023-08-21T08:39:16;3.45;;;1.20;;
55067;SDS011;40965;52.368;9.712;2023-08-21T08:41:44;2.63;;;1.20;;
55067;SDS011;40965;52.368;9.712;2023-08-21T08:44:22;3.70;;;1.15;;
55067;SDS011;40965;52.368;9.712;2023-08-21T08:46:51;10.10;;;1.92;;
55067;SDS011;40965;52.368;9.712;2023-08-21T08:49:19;7.45;;;2.22;;
55067;SDS011;40965;52.368;9.712;2023-08-21T08:51:49;5.78;;;1.50;;
55067;SDS011;40965;52.368;9.712;2023-08-21T08:54:19;6.07;;;1.30;;
55067;SDS011;40965;52.368;9.712;2023-08-21T08:56:48;5.30;;;1.35;;
55067;SDS011;40965;52.368;9.712;2023-08-21T08:59:14;1.30;;;1.02;;
55067;SDS011;40965;52.368;9.712;2023-08-21T09:01:41;2.95;;;0.93;;
55067;SDS011;40965;52.368;9.712;2023-08-21T09:04:08;1.65;;;0.90;;
55067;SDS011;40965;52.368;9.712;2023-08-21T09:06:35;4.70;;;1.45;;
55067;SDS011;40965;52.368;9.712;2023-08-21T09:09:02;3.70;;;1.30;;
55067;SDS011;40965;52.368;9.712;2023-08-21T09:11:29;3.53;;;1.10;;
55067;SDS011;40965;52.368;9.712;2023-08-21T09:13:58;2.47;;;0.95;;
55067;SDS011;40965;52.368;9.712;2023-08-21T09:16:27;4.80;;;1.20;;
55067;SDS011;40965;52.368;9.712;2023-08-21T09:18:57;6.35;;;1.20;;
55067;SDS011;40965;52.368;9.712;2023-08-21T09:21:24;4.32;;;1.35;;
55067;SDS011;40965;52.368;9.712;2023-08-21T09:23:56;4.20;;;1.00;;
55067;SDS011;40965;52.368;9.712;2023-08-21T09:26:24;2.70;;;0.93;;
55067;SDS011;40965;52.368;9.712;2023-08-21T09:28:51;2.28;;;0.82;;
55067;SDS011;40965;52.368;9.712;2023-08-21T09:31:23;4.75;;;1.35;;
55067;SDS011;40965;52.368;9.712;2023-08-21T09:33:56;1.48;;;1.00;;
55067;SDS011;40965;52.368;9.712;2023-08-21T09:36:26;2.28;;;1.15;;
55067;SDS011;40965;52.368;9.712;2023-08-21T09:38:54;3.40;;;1.05;;
55067;SDS011;40965;52.368;9.712;2023-08-21T09:41:23;3.45;;;0.90;;
55067;SDS011;40965;52.368;9.712;2023-08-21T09:43:51;2.05;;;0.63;;
55067;SDS011;40965;52.368;9.712;2023-08-21T09:46:25;2.53;;;0.80;;
55067;SDS011;40965;52.368;9.712;2023-08-21T09:48:53;1.45;;;0.88;;
55067;SDS011;40965;52.368;9.712;2023-08-21T09:51:20;1.23;;;0.60;;
55067;SDS011;40965;52.368;9.712;2023-08-21T09:53:50;3.00;;;1.33;;
55067;SDS011;40965;52.368;9.712;2023-08-21T09:56:23;2.92;;;0.70;;
55067;SDS011;40965;52.368;9.712;2023-08-21T09:58:50;7.55;;;1.35;;
55067;SDS011;40965;52.368;9.712;2023-08-21T10:01:17;3.92;;;1.40;;
55067;SDS011;40965;52.368;9.712;2023-08-21T10:03:47;5.72;;;1.33;;
55067;SDS011;40965;52.368;9.712;2023-08-21T10:06:16;2.65;;;1.05;;
55067;SDS011;40965;52.368;9.712;2023-08-21T10:08:44;1.65;;;0.73;;
55067;SDS011;40965;52.368;9.712;2023-08-21T10:11:12;2.08;;;0.88;;
55067;SDS011;40965;52.368;9.712;2023-08-21T10:13:40;1.05;;;0.50;;
55067;SDS011;40965;52.368;9.712;2023-08-21T10:16:07;3.90;;;0.57;;
55067;SDS011;40965;52.368;9.712;2023-08-21T10:18:36;2.60;;;0.82;;
55067;SDS011;40965;52.368;9.712;2023-08-21T10:21:11;1.73;;;0.43;;
55067;SDS011;40965;52.368;9.712;2023-08-21T10:23:47;1.83;;;0.80;;
55067;SDS011;40965;52.368;9.712;2023-08-21T10:26:19;4.35;;;1.10;;
55067;SDS011;40965;52.368;9.712;2023-08-21T10:31:31;1.35;;;0.70;;
55067;SDS011;40965;52.368;9.712;2023-08-21T10:34:07;3.08;;;0.95;;
55067;SDS011;40965;52.368;9.712;2023-08-21T10:39:13;1.90;;;0.60;;
55067;SDS011;40965;52.368;9.712;2023-08-21T10:41:54;2.03;;;0.63;;
55067;SDS011;40965;52.368;9.712;2023-08-21T10:47:21;21.95;;;3.72;;
55067;SDS011;40965;52.368;9.712;2023-08-21T10:49:53;10.48;;;2.47;;
55067;SDS011;40965;52.368;9.712;2023-08-21T10:52:26;9.23;;;1.33;;
55067;SDS011;40965;52.368;9.712;2023-08-21T10:55:10;7.93;;;1.17;;
55067;SDS011;40965;52.368;9.712;2023-08-21T10:57:38;2.60;;;1.25;;
55067;SDS011;40965;52.368;9.712;2023-08-21T11:00:10;0.82;;;0.77;;
55067;SDS011;40965;52.368;9.712;2023-08-21T11:02:46;1.55;;;0.82;;
55067;SDS011;40965;52.368;9.712;2023-08-21T11:05:17;3.30;;;0.68;;
55067;SDS011;40965;52.368;9.712;2023-08-21T11:07:45;13.80;;;1.50;;
55067;SDS011;40965;52.368;9.712;2023-08-21T11:10:14;2.38;;;0.80;;
55067;SDS011;40965;52.368;9.712;2023-08-21T11:12:50;6.18;;;1.10;;
55067;SDS011;40965;52.368;9.712;2023-08-21T11:15:20;2.63;;;0.52;;
55067;SDS011;40965;52.368;9.712;2023-08-21T11:17:54;2.42;;;0.63;;
55067;SDS011;40965;52.368;9.712;2023-08-21T11:20:33;2.38;;;1.15;;
55067;SDS011;40965;52.368;9.712;2023-08-21T11:23:04;1.77;;;0.60;;
55067;SDS011;40965;52.368;9.712;2023-08-21T11:25:33;1.42;;;0.73;;
55067;SDS011;40965;52.368;9.712;2023-08-21T11:28:01;2.88;;;0.77;;
55067;SDS011;40965;52.368;9.712;2023-08-21T11:30:30;3.63;;;0.70;;
55067;SDS011;40965;52.368;9.712;2023-08-21T11:33:04;1.13;;;0.50;;
55067;SDS011;40965;52.368;9.712;2023-08-21T11:35:37;1.05;;;0.77;;
55067;SDS011;40965;52.368;9.712;2023-08-21T11:38:05;1.63;;;0.60;;
55067;SDS011;40965;52.368;9.712;2023-08-21T11:40:35;5.03;;;0.93;;
55067;SDS011;40965;52.368;9.712;2023-08-21T11:43:02;2.83;;;0.90;;
55067;SDS011;40965;52.368;9.712;2023-08-21T11:45:30;2.05;;;0.55;;
55067;SDS011;40965;52.368;9.712;2023-08-21T11:47:57;1.95;;;0.80;;
55067;SDS011;40965;52.368;9.712;2023-08-21T11:50:28;2.95;;;0.70;;
55067;SDS011;40965;52.368;9.712;2023-08-21T11:52:55;3.13;;;0.90;;
55067;SDS011;40965;52.368;9.712;2023-08-21T11:55:22;1.90;;;0.68;;
55067;SDS011;40965;52.368;9.712;2023-08-21T11:57:49;2.67;;;0.93;;
55067;SDS011;40965;52.368;9.712;2023-08-21T12:00:18;2.50;;;0.85;;
55067;SDS011;40965;52.368;9.712;2023-08-21T12:02:57;5.78;;;1.27;;
55067;SDS011;40965;52.368;9.712;2023-08-21T12:05:29;2.60;;;1.10;;
55067;SDS011;40965;52.368;9.712;2023-08-21T12:07:56;3.05;;;1.33;;
55067;SDS011;40965;52.368;9.712;2023-08-21T12:10:26;4.05;;;1.33;;
55067;SDS011;40965;52.368;9.712;2023-08-21T12:12:54;3.50;;;0.75;;
55067;SDS011;40965;52.368;9.712;2023-08-21T12:15:22;1.77;;;0.70;;
55067;SDS011;40965;52.368;9.712;2023-08-21T12:17:49;3.40;;;1.02;;
55067;SDS011;40965;52.368;9.712;2023-08-21T12:20:16;1.50;;;1.15;;
55067;SDS011;40965;52.368;9.712;2023-08-21T12:22:42;2.08;;;1.30;;
55067;SDS011;40965;52.368;9.712;2023-08-21T12:25:09;1.85;;;0.82;;
55067;SDS011;40965;52.368;9.712;2023-08-21T12:27:36;2.45;;;0.93;;
55067;SDS011;40965;52.368;9.712;2023-08-21T12:30:03;3.00;;;0.95;;
55067;SDS011;40965;52.368;9.712;2023-08-21T12:32:32;2.70;;;0.80;;
55067;SDS011;40965;52.368;9.712;2023-08-21T12:34:59;1.35;;;0.85;;
55067;SDS011;40965;52.368;9.712;2023-08-21T12:37:26;2.75;;;1.02;;
55067;SDS011;40965;52.368;9.712;2023-08-21T12:39:53;3.47;;;1.00;;
55067;SDS011;40965;52.368;9.712;2023-08-21T12:42:20;1.75;;;0.70;;
55067;SDS011;40965;52.368;9.712;2023-08-21T12:44:47;5.32;;;0.80;;
55067;SDS011;40965;52.368;9.712;2023-08-21T12:47:13;2.50;;;0.80;;
55067;SDS011;40965;52.368;9.712;2023-08-21T12:49:40;4.00;;;0.95;;
55067;SDS011;40965;52.368;9.712;2023-08-21T12:52:07;3.17;;;1.35;;
55067;SDS011;40965;52.368;9.712;2023-08-21T12:54:33;0.57;;;0.40;;
55067;SDS011;40965;52.368;9.712;2023-08-21T12:57:00;4.10;;;0.68;;
55067;SDS011;40965;52.368;9.712;2023-08-21T12:59:27;1.10;;;0.70;;
55067;SDS011;40965;52.368;9.712;2023-08-21T13:01:53;1.90;;;0.85;;
55067;SDS011;40965;52.368;9.712;2023-08-21T13:04:20;3.05;;;0.68;;
55067;SDS011;40965;52.368;9.712;2023-08-21T13:06:46;3.28;;;1.23;;
55067;SDS011;40965;52.368;9.712;2023-08-21T13:09:13;1.15;;;0.75;;
55067;SDS011;40965;52.368;9.712;2023-08-21T13:11:39;2.63;;;1.10;;
55067;SDS011;40965;52.368;9.712;2023-08-21T13:14:06;2.05;;;0.73;;
55067;SDS011;40965;52.368;9.712;2023-08-21T13:16:32;3.30;;;0.93;;
55067;SDS011;40965;52.368;9.712;2023-08-21T13:19:01;0.80;;;0.55;;
55067;SDS011;40965;52.368;9.712;2023-08-21T13:21:28;3.35;;;0.95;;
55067;SDS011;40965;52.368;9.712;2023-08-21T13:23:55;1.33;;;0.90;;
55067;SDS011;40965;52.368;9.712;2023-08-21T13:26:21;3.70;;;1.05;;
55067;SDS011;40965;52.368;9.712;2023-08-21T13:28:50;1.60;;;0.40;;
55067;SDS011;40965;52.368;9.712;2023-08-21T13:31:17;0.80;;;0.77;;
55067;SDS011;40965;52.368;9.712;2023-08-21T13:33:47;1.08;;;0.98;;
55067;SDS011;40965;52.368;9.712;2023-08-21T13:36:15;1.83;;;1.13;;
55067;SDS011;40965;52.368;9.712;2023-08-21T13:38:43;2.90;;;0.70;;
55067;SDS011;40965;52.368;9.712;2023-08-21T13:41:09;0.90;;;0.60;;
55067;SDS011;40965;52.368;9.712;2023-08-21T13:43:36;1.67;;;0.70;;
55067;SDS011;40965;52.368;9.712;2023-08-21T13:46:04;2.25;;;0.85;;
55067;SDS011;40965;52.368;9.712;2023-08-21T13:48:31;4.82;;;1.30;;
55067;SDS011;40965;52.368;9.712;2023-08-21T13:50:58;3.03;;;0.70;;
55067;SDS011;40965;52.368;9.712;2023-08-21T13:53:25;0.70;;;0.70;;
55067;SDS011;40965;52.368;9.712;2023-08-21T13:55:52;1.60;;;0.90;;
55067;SDS011;40965;52.368;9.712;2023-08-21T13:58:18;2.55;;;0.77;;
55067;SDS011;40965;52.368;9.712;2023-08-21T14:00:46;2.90;;;0.80;;
55067;SDS011;40965;52.368;9.712;2023-08-21T14:03:13;3.30;;;1.23;;
55067;SDS011;40965;52.368;9.712;2023-08-21T14:05:40;1.13;;;0.43;;
55067;SDS011;40965;52.368;9.712;2023-08-21T14:08:07;2.40;;;0.60;;
55067;SDS011;40965;52.368;9.712;2023-08-21T14:10:34;1.98;;;0.68;;
55067;SDS011;40965;52.368;9.712;2023-08-21T14:13:01;1.58;;;1.02;;
55067;SDS011;40965;52.368;9.712;2023-08-21T14:15:31;2.30;;;0.70;;
55067;SDS011;40965;52.368;9.712;2023-08-21T14:17:58;1.25;;;0.80;;
55067;SDS011;40965;52.368;9.712;2023-08-21T14:20:24;2.58;;;0.70;;
55067;SDS011;40965;52.368;9.712;2023-08-21T14:22:51;3.97;;;0.90;;
55067;SDS011;40965;52.368;9.712;2023-08-21T14:25:17;1.73;;;0.65;;
55067;SDS011;40965;52.368;9.712;2023-08-21T14:27:43;3.97;;;1.15;;
55067;SDS011;40965;52.368;9.712;2023-08-21T14:30:10;0.93;;;0.70;;
55067;SDS011;40965;52.368;9.712;2023-08-21T14:32:37;0.75;;;0.50;;
55067;SDS011;40965;52.368;9.712;2023-08-21T14:35:05;2.30;;;0.73;;
55067;SDS011;40965;52.368;9.712;2023-08-21T14:37:33;1.38;;;0.60;;
55067;SDS011;40965;52.368;9.712;2023-08-21T14:40:01;0.93;;;0.43;;
55067;SDS011;40965;52.368;9.712;2023-08-21T14:42:32;0.63;;;0.35;;
55067;SDS011;40965;52.368;9.712;2023-08-21T14:44:58;1.55;;;0.60;;
55067;SDS011;40965;52.368;9.712;2023-08-21T14:47:25;1.95;;;0.65;;
55067;SDS011;40965;52.368;9.712;2023-08-21T14:49:54;1.67;;;0.70;;
55067;SDS011;40965;52.368;9.712;2023-08-21T14:52:23;4.43;;;0.73;;
55067;SDS011;40965;52.368;9.712;2023-08-21T14:54:51;1.33;;;0.82;;
55067;SDS011;40965;52.368;9.712;2023-08-21T14:57:19;0.80;;;0.43;;
55067;SDS011;40965;52.368;9.712;2023-08-21T14:59:45;0.47;;;0.40;;